createdAt,value
2017-05-18T00:00:43.066Z,0
2017-05-18T00:01:43.686Z,0
2017-05-18T00:02:44.335Z,0
2017-05-18T00:03:44.932Z,0
2017-05-18T00:04:45.541Z,0
2017-05-18T00:05:46.148Z,0
2017-05-18T00:06:46.756Z,0
2017-05-18T00:07:47.366Z,0
2017-05-18T00:08:47.974Z,0
2017-05-18T00:09:48.591Z,0
2017-05-18T00:10:49.192Z,0
2017-05-18T00:11:49.802Z,0
2017-05-18T00:12:50.402Z,0
2017-05-18T00:13:51.004Z,0
2017-05-18T00:14:51.615Z,0
2017-05-18T00:15:52.227Z,0
2017-05-18T00:16:52.842Z,0
2017-05-18T00:17:53.463Z,0
2017-05-18T00:18:54.102Z,0
2017-05-18T00:19:54.717Z,0
2017-05-18T00:20:55.332Z,0
2017-05-18T00:21:55.949Z,0
2017-05-18T00:22:56.552Z,0
2017-05-18T00:23:57.169Z,0
2017-05-18T00:24:57.777Z,0
2017-05-18T00:25:58.392Z,0
2017-05-18T00:26:59.006Z,0
2017-05-18T00:27:59.632Z,0
2017-05-18T00:29:00.216Z,0
2017-05-18T00:30:00.826Z,0
2017-05-18T00:31:01.439Z,0
2017-05-18T00:32:02.065Z,0
2017-05-18T00:33:02.674Z,0
2017-05-18T00:34:03.279Z,0
2017-05-18T00:35:03.898Z,0
2017-05-18T00:36:04.503Z,0
2017-05-18T00:37:05.120Z,0
2017-05-18T00:38:05.714Z,0
2017-05-18T00:39:06.319Z,0
2017-05-18T00:40:06.921Z,0
2017-05-18T00:41:07.537Z,0
2017-05-18T00:42:08.145Z,0
2017-05-18T00:43:08.759Z,0
2017-05-18T00:44:09.361Z,0
2017-05-18T00:45:09.975Z,0
2017-05-18T00:46:10.587Z,0
2017-05-18T00:47:11.196Z,0
2017-05-18T00:48:11.796Z,0
2017-05-18T00:49:12.400Z,0
2017-05-18T00:50:13.012Z,0
2017-05-18T00:51:13.658Z,0
2017-05-18T00:52:14.223Z,0
2017-05-18T00:53:14.828Z,0
2017-05-18T00:54:15.445Z,0
2017-05-18T00:55:16.066Z,0
2017-05-18T00:56:16.681Z,0
2017-05-18T00:57:17.294Z,0
2017-05-18T00:58:17.909Z,0
2017-05-18T00:59:18.520Z,0
2017-05-18T01:00:19.121Z,0
2017-05-18T01:01:19.736Z,0
2017-05-18T01:02:20.352Z,0
2017-05-18T01:03:20.972Z,0
2017-05-18T01:04:21.580Z,0
2017-05-18T01:05:22.198Z,0
2017-05-18T01:06:22.803Z,0
2017-05-18T01:08:38.891Z,0
2017-05-18T01:09:39.506Z,0
2017-05-18T01:10:40.107Z,0
2017-05-18T01:11:40.721Z,0
2017-05-18T01:12:41.337Z,0
2017-05-18T01:13:41.999Z,0
2017-05-18T01:14:42.602Z,0
2017-05-18T01:15:43.218Z,0
2017-05-18T01:16:43.816Z,0
2017-05-18T01:17:44.418Z,0
2017-05-18T01:18:45.029Z,0
2017-05-18T01:19:45.650Z,0
2017-05-18T01:20:46.264Z,0
2017-05-18T01:21:46.877Z,0
2017-05-18T01:22:47.489Z,0
2017-05-18T01:23:48.091Z,0
2017-05-18T01:24:48.699Z,0
2017-05-18T01:25:49.302Z,0
2017-05-18T01:26:49.907Z,0
2017-05-18T01:27:50.526Z,0
2017-05-18T01:28:51.128Z,0
2017-05-18T01:29:51.740Z,0
2017-05-18T01:30:52.344Z,0
2017-05-18T01:31:52.946Z,0
2017-05-18T01:32:53.563Z,0
2017-05-18T01:33:54.174Z,0
2017-05-18T01:34:54.787Z,0
2017-05-18T01:35:55.389Z,0
2017-05-18T01:36:56.005Z,0
2017-05-18T01:37:56.617Z,0
2017-05-18T01:38:57.287Z,0
2017-05-18T01:39:57.887Z,0
2017-05-18T01:40:58.500Z,0
2017-05-18T01:41:59.117Z,0
2017-05-18T01:42:59.733Z,0
2017-05-18T01:44:00.350Z,0
2017-05-18T01:45:00.968Z,0
2017-05-18T01:46:01.585Z,0
2017-05-18T01:47:02.196Z,0
2017-05-18T01:48:02.809Z,0
2017-05-18T01:49:03.415Z,0
2017-05-18T01:50:04.025Z,0
2017-05-18T01:51:04.643Z,0
2017-05-18T01:52:05.229Z,0
2017-05-18T01:53:05.845Z,0
2017-05-18T01:54:06.464Z,0
2017-05-18T01:55:07.080Z,0
2017-05-18T01:56:07.696Z,0
2017-05-18T01:57:08.359Z,0
2017-05-18T01:58:08.971Z,0
2017-05-18T01:59:09.587Z,0
2017-05-18T02:00:10.190Z,0
2017-05-18T02:01:10.806Z,0
2017-05-18T02:02:11.418Z,0
2017-05-18T02:03:12.019Z,0
2017-05-18T02:04:12.636Z,0
2017-05-18T02:05:13.263Z,0
2017-05-18T02:06:13.861Z,0
2017-05-18T02:07:14.463Z,0
2017-05-18T02:08:15.077Z,0
2017-05-18T02:09:15.687Z,0
2017-05-18T02:10:16.298Z,0
2017-05-18T02:11:16.912Z,0
2017-05-18T02:12:17.532Z,0
2017-05-18T02:13:18.131Z,0
2017-05-18T02:14:18.739Z,0
2017-05-18T02:15:19.353Z,0
2017-05-18T02:16:19.956Z,0
2017-05-18T02:17:20.610Z,0
2017-05-18T02:18:21.227Z,0
2017-05-18T02:19:21.849Z,0
2017-05-18T02:20:22.473Z,0
2017-05-18T02:21:23.086Z,0
2017-05-18T02:22:23.694Z,0
2017-05-18T02:23:24.307Z,0
2017-05-18T02:24:24.925Z,0
2017-05-18T02:25:25.539Z,0
2017-05-18T02:26:26.149Z,0
2017-05-18T02:27:26.766Z,0
2017-05-18T02:28:27.372Z,0
2017-05-18T02:29:27.988Z,0
2017-05-18T02:30:28.603Z,0
2017-05-18T02:31:29.202Z,0
2017-05-18T02:32:29.815Z,0
2017-05-18T02:33:30.430Z,0
2017-05-18T02:34:31.047Z,0
2017-05-18T02:35:31.655Z,0
2017-05-18T02:36:32.259Z,0
2017-05-18T02:37:32.871Z,0
2017-05-18T02:38:33.472Z,0
2017-05-18T02:39:34.083Z,0
2017-05-18T02:40:34.701Z,0
2017-05-18T02:41:35.314Z,0
2017-05-18T02:42:35.916Z,0
2017-05-18T02:43:36.519Z,0
2017-05-18T02:44:37.129Z,0
2017-05-18T02:45:37.733Z,0
2017-05-18T02:46:38.339Z,0
2017-05-18T02:47:38.950Z,0
2017-05-18T02:48:39.562Z,0
2017-05-18T02:49:40.167Z,0
2017-05-18T02:50:40.766Z,0
2017-05-18T02:51:41.385Z,0
2017-05-18T02:52:41.979Z,0
2017-05-18T02:53:42.589Z,0
2017-05-18T02:54:43.200Z,0
2017-05-18T02:55:43.801Z,0
2017-05-18T02:56:44.416Z,0
2017-05-18T02:57:45.019Z,0
2017-05-18T02:58:45.633Z,4
2017-05-18T02:59:46.236Z,4
2017-05-18T03:00:46.845Z,0
2017-05-18T03:01:47.459Z,0
2017-05-18T03:02:48.089Z,4
2017-05-18T03:03:48.693Z,4
2017-05-18T03:04:49.295Z,4
2017-05-18T03:05:49.896Z,4
2017-05-18T03:06:50.504Z,8
2017-05-18T03:07:51.109Z,4
2017-05-18T03:08:51.712Z,8
2017-05-18T03:09:52.322Z,4
2017-05-18T03:10:52.932Z,8
2017-05-18T03:11:53.546Z,8
2017-05-18T03:12:54.164Z,8
2017-05-18T03:13:54.778Z,12
2017-05-18T03:14:55.379Z,12
2017-05-18T03:15:55.995Z,16
2017-05-18T03:16:56.612Z,16
2017-05-18T03:17:57.226Z,24
2017-05-18T03:18:57.841Z,24
2017-05-18T03:19:58.455Z,28
2017-05-18T03:20:59.059Z,32
2017-05-18T03:21:59.671Z,40
2017-05-18T03:23:00.289Z,40
2017-05-18T03:24:00.903Z,48
2017-05-18T03:25:01.515Z,48
2017-05-18T03:26:02.131Z,52
2017-05-18T03:27:02.749Z,56
2017-05-18T03:28:03.367Z,60
2017-05-18T03:29:03.983Z,64
2017-05-18T03:30:04.597Z,72
2017-05-18T03:31:05.213Z,80
2017-05-18T03:32:05.869Z,88
2017-05-18T03:33:06.477Z,80
2017-05-18T03:34:07.086Z,72
2017-05-18T03:35:07.700Z,64
2017-05-18T03:36:08.328Z,56
2017-05-18T03:37:09.005Z,56
2017-05-18T03:38:09.597Z,56
2017-05-18T03:39:10.213Z,60
2017-05-18T03:40:10.830Z,72
2017-05-18T03:41:11.445Z,84
2017-05-18T03:42:12.050Z,96
2017-05-18T03:43:12.650Z,100
2017-05-18T03:44:13.261Z,112
2017-05-18T03:45:13.869Z,124
2017-05-18T03:46:14.476Z,136
2017-05-18T03:47:15.132Z,128
2017-05-18T03:48:15.737Z,116
2017-05-18T03:49:16.341Z,100
2017-05-18T03:50:16.952Z,88
2017-05-18T03:51:17.567Z,76
2017-05-18T03:52:18.168Z,72
2017-05-18T03:53:18.780Z,68
2017-05-18T03:54:19.395Z,72
2017-05-18T03:55:20.005Z,72
2017-05-18T03:56:20.621Z,72
2017-05-18T03:57:21.236Z,76
2017-05-18T03:58:21.852Z,84
2017-05-18T03:59:22.456Z,88
2017-05-18T04:00:23.057Z,92
2017-05-18T04:01:23.663Z,96
2017-05-18T04:02:24.273Z,104
2017-05-18T04:03:24.893Z,112
2017-05-18T04:04:25.508Z,124
2017-05-18T04:05:26.109Z,140
2017-05-18T04:06:26.721Z,152
2017-05-18T04:07:27.338Z,156
2017-05-18T04:08:27.962Z,152
2017-05-18T04:09:28.573Z,144
2017-05-18T04:10:29.179Z,144
2017-05-18T04:11:29.783Z,136
2017-05-18T04:12:30.386Z,132
2017-05-18T04:13:30.998Z,136
2017-05-18T04:14:31.620Z,140
2017-05-18T04:15:32.224Z,156
2017-05-18T04:16:32.843Z,172
2017-05-18T04:17:33.448Z,196
2017-05-18T04:18:34.050Z,216
2017-05-18T04:19:34.667Z,232
2017-05-18T04:20:35.270Z,260
2017-05-18T04:21:35.883Z,284
2017-05-18T04:22:36.492Z,316
2017-05-18T04:23:37.100Z,364
2017-05-18T04:24:37.735Z,416
2017-05-18T04:25:38.342Z,516
2017-05-18T04:26:38.946Z,596
2017-05-18T04:27:39.555Z,668
2017-05-18T04:28:40.169Z,720
2017-05-18T04:29:40.781Z,756
2017-05-18T04:30:41.403Z,788
2017-05-18T04:31:42.009Z,812
2017-05-18T04:32:42.620Z,860
2017-05-18T04:33:43.224Z,924
2017-05-18T04:34:43.843Z,1024
2017-05-18T04:35:44.460Z,1176
2017-05-18T04:36:45.079Z,1404
2017-05-18T04:37:45.687Z,1656
2017-05-18T04:38:46.300Z,1852
2017-05-18T04:39:46.909Z,1992
2017-05-18T04:40:47.527Z,2072
2017-05-18T04:41:48.141Z,2100
2017-05-18T04:42:48.758Z,2156
2017-05-18T04:43:49.371Z,2304
2017-05-18T04:44:49.994Z,2612
2017-05-18T04:45:50.613Z,3092
2017-05-18T04:46:51.225Z,3576
2017-05-18T04:47:51.843Z,3892
2017-05-18T04:48:52.456Z,4028
2017-05-18T04:49:53.057Z,3980
2017-05-18T04:50:53.681Z,3720
2017-05-18T04:51:54.310Z,3332
2017-05-18T04:52:54.912Z,2940
2017-05-18T04:53:55.533Z,2652
2017-05-18T04:54:56.152Z,2452
2017-05-18T04:55:56.763Z,2364
2017-05-18T04:56:57.395Z,2368
2017-05-18T04:57:57.996Z,2480
2017-05-18T04:58:58.614Z,2724
2017-05-18T04:59:59.232Z,2996
2017-05-18T05:00:59.846Z,3304
2017-05-18T05:02:00.468Z,3576
2017-05-18T05:03:01.056Z,3828
2017-05-18T05:04:01.672Z,3932
2017-05-18T05:05:02.281Z,3836
2017-05-18T05:06:02.905Z,3596
2017-05-18T05:07:03.558Z,3292
2017-05-18T05:08:04.179Z,2976
2017-05-18T05:09:04.796Z,2772
2017-05-18T05:10:05.411Z,2800
2017-05-18T05:11:06.017Z,2888
2017-05-18T05:12:06.621Z,3072
2017-05-18T05:13:07.235Z,3492
2017-05-18T05:14:07.855Z,3920
2017-05-18T05:15:08.473Z,4236
2017-05-18T05:16:09.096Z,4564
2017-05-18T05:17:09.717Z,4752
2017-05-18T05:18:10.322Z,5024
2017-05-18T05:19:10.940Z,5200
2017-05-18T05:20:11.545Z,4972
2017-05-18T05:21:12.163Z,4652
2017-05-18T05:22:12.834Z,4356
2017-05-18T05:23:13.445Z,4520
2017-05-18T05:24:14.061Z,4924
2017-05-18T05:25:14.689Z,5168
2017-05-18T05:26:15.300Z,5392
2017-05-18T05:27:15.928Z,6088
2017-05-18T05:28:16.549Z,7036
2017-05-18T05:29:17.169Z,7912
2017-05-18T05:30:17.788Z,8640
2017-05-18T05:31:18.394Z,8852
2017-05-18T05:32:19.063Z,8856
2017-05-18T05:33:19.685Z,9224
2017-05-18T05:34:20.293Z,9488
2017-05-18T05:35:20.896Z,9012
2017-05-18T05:36:21.501Z,8440
2017-05-18T05:37:22.114Z,8780
2017-05-18T05:38:22.732Z,9916
2017-05-18T05:39:23.349Z,10120
2017-05-18T05:40:23.967Z,9300
2017-05-18T05:41:24.586Z,8884
2017-05-18T05:42:25.201Z,8792
2017-05-18T05:43:25.818Z,8164
2017-05-18T05:44:26.426Z,7436
2017-05-18T05:45:27.042Z,6384
2017-05-18T05:46:27.669Z,4940
2017-05-18T05:47:28.270Z,4008
2017-05-18T05:48:28.879Z,3764
2017-05-18T05:49:29.482Z,3784
2017-05-18T05:50:30.099Z,3908
2017-05-18T05:51:30.721Z,4388
2017-05-18T05:52:31.343Z,4828
2017-05-18T05:53:31.961Z,4888
2017-05-18T05:54:32.565Z,4772
2017-05-18T05:55:33.174Z,5392
2017-05-18T05:56:33.786Z,5668
2017-05-18T05:57:34.407Z,5340
2017-05-18T05:58:35.029Z,4896
2017-05-18T05:59:35.648Z,4816
2017-05-18T06:00:36.256Z,4524
2017-05-18T06:01:36.866Z,4168
2017-05-18T06:02:37.483Z,4140
2017-05-18T06:03:38.100Z,4412
2017-05-18T06:04:38.722Z,4792
2017-05-18T06:05:39.333Z,5288
2017-05-18T06:06:39.954Z,5604
2017-05-18T06:07:40.575Z,5532
2017-05-18T06:08:41.199Z,5024
2017-05-18T06:09:41.809Z,4932
2017-05-18T06:10:42.428Z,5208
2017-05-18T06:11:43.030Z,5236
2017-05-18T06:12:43.639Z,5060
2017-05-18T06:13:44.260Z,5116
2017-05-18T06:14:44.864Z,5236
2017-05-18T06:15:45.470Z,5016
2017-05-18T06:16:46.089Z,4516
2017-05-18T06:17:46.693Z,4168
2017-05-18T06:18:47.306Z,3884
2017-05-18T06:19:47.923Z,4036
2017-05-18T06:20:48.537Z,4628
2017-05-18T06:21:49.143Z,5096
2017-05-18T06:22:49.811Z,5696
2017-05-18T06:23:50.430Z,6636
2017-05-18T06:24:51.045Z,7580
2017-05-18T06:25:51.662Z,8204
2017-05-18T06:26:52.268Z,8540
2017-05-18T06:27:52.891Z,9232
2017-05-18T06:28:53.503Z,9728
2017-05-18T06:29:54.112Z,10732
2017-05-18T06:30:54.721Z,11580
2017-05-18T06:31:55.340Z,12476
2017-05-18T06:32:55.962Z,17076
2017-05-18T06:33:56.583Z,21280
2017-05-18T06:34:57.192Z,27072
2017-05-18T06:35:57.814Z,26592
2017-05-18T06:36:58.424Z,13540
2017-05-18T06:37:59.035Z,12160
2017-05-18T06:38:59.645Z,10848
2017-05-18T06:40:00.255Z,11044
2017-05-18T06:41:00.870Z,9708
2017-05-18T06:42:01.484Z,9216
2017-05-18T06:43:02.108Z,9076
2017-05-18T06:44:02.715Z,8908
2017-05-18T06:45:03.326Z,9012
2017-05-18T06:46:03.949Z,9360
2017-05-18T06:47:04.577Z,9820
2017-05-18T06:48:05.182Z,10344
2017-05-18T06:49:05.801Z,10928
2017-05-18T06:50:06.421Z,11628
2017-05-18T06:51:07.039Z,12404
2017-05-18T06:52:07.664Z,13088
2017-05-18T06:53:08.283Z,13816
2017-05-18T06:54:08.902Z,13708
2017-05-18T06:55:09.522Z,13060
2017-05-18T06:56:10.144Z,13204
2017-05-18T06:57:10.774Z,14084
2017-05-18T06:58:11.399Z,14772
2017-05-18T06:59:12.025Z,15516
2017-05-18T07:00:12.639Z,16044
2017-05-18T07:01:13.260Z,15136
2017-05-18T07:02:13.915Z,12588
2017-05-18T07:03:14.525Z,10400
2017-05-18T07:04:15.141Z,9940
2017-05-18T07:05:15.763Z,10300
2017-05-18T07:06:16.381Z,10700
2017-05-18T07:07:17.008Z,12004
2017-05-18T07:08:17.619Z,14472
2017-05-18T07:09:18.241Z,13380
2017-05-18T07:10:18.985Z,11416
2017-05-18T07:11:19.612Z,11696
2017-05-18T07:12:20.225Z,8672
2017-05-18T07:13:20.856Z,5020
2017-05-18T07:14:21.466Z,3912
2017-05-18T07:15:22.079Z,4256
2017-05-18T07:16:22.726Z,5000
2017-05-18T07:17:23.328Z,5916
2017-05-18T07:18:23.945Z,6212
2017-05-18T07:19:24.565Z,5320
2017-05-18T07:20:25.184Z,3992
2017-05-18T07:21:25.799Z,4196
2017-05-18T07:22:26.416Z,5788
2017-05-18T07:23:27.037Z,7564
2017-05-18T07:24:27.658Z,8780
2017-05-18T07:25:28.277Z,9796
2017-05-18T07:26:28.944Z,9864
2017-05-18T07:27:29.585Z,8112
2017-05-18T07:28:30.184Z,6324
2017-05-18T07:29:30.806Z,5520
2017-05-18T07:30:31.429Z,5124
2017-05-18T07:31:32.054Z,6432
2017-05-18T07:32:32.675Z,8820
2017-05-18T07:33:33.294Z,10584
2017-05-18T07:34:33.913Z,10372
2017-05-18T07:35:34.530Z,9440
2017-05-18T07:36:35.141Z,8944
2017-05-18T07:37:35.748Z,8828
2017-05-18T07:38:36.366Z,9372
2017-05-18T07:39:36.975Z,10388
2017-05-18T07:40:37.611Z,11040
2017-05-18T07:41:38.255Z,11080
2017-05-18T07:42:38.890Z,10660
2017-05-18T07:43:39.512Z,10204
2017-05-18T07:44:40.119Z,9984
2017-05-18T07:45:40.742Z,9900
2017-05-18T07:46:41.361Z,9192
2017-05-18T07:47:41.979Z,7988
2017-05-18T07:48:42.599Z,7756
2017-05-18T07:49:43.213Z,9528
2017-05-18T07:50:43.832Z,12748
2017-05-18T07:51:44.453Z,14696
2017-05-18T07:52:45.075Z,13364
2017-05-18T07:53:45.696Z,11772
2017-05-18T07:54:46.313Z,11456
2017-05-18T07:55:46.920Z,11096
2017-05-18T07:56:47.537Z,9896
2017-05-18T07:57:48.145Z,8888
2017-05-18T07:58:48.765Z,8480
2017-05-18T07:59:49.382Z,8132
2017-05-18T08:00:49.990Z,7824
2017-05-18T08:01:50.611Z,8104
2017-05-18T08:02:51.233Z,8508
2017-05-18T08:03:51.854Z,8848
2017-05-18T08:04:52.477Z,10320
2017-05-18T08:05:53.096Z,12508
2017-05-18T08:06:53.712Z,13888
2017-05-18T08:07:54.332Z,13152
2017-05-18T08:08:54.951Z,11644
2017-05-18T08:09:55.575Z,10728
2017-05-18T08:10:56.189Z,10128
2017-05-18T08:11:56.806Z,9988
2017-05-18T08:12:57.426Z,10620
2017-05-18T08:13:58.042Z,11632
2017-05-18T08:14:58.651Z,12720
2017-05-18T08:15:59.278Z,12796
2017-05-18T08:16:59.899Z,11672
2017-05-18T08:18:00.510Z,10584
2017-05-18T08:19:01.124Z,10264
2017-05-18T08:20:01.730Z,10220
2017-05-18T08:21:02.348Z,9896
2017-05-18T08:22:02.968Z,9088
2017-05-18T08:23:03.585Z,8756
2017-05-18T08:24:04.190Z,9316
2017-05-18T08:25:04.804Z,10264
2017-05-18T08:26:05.408Z,10716
2017-05-18T08:27:06.027Z,10968
2017-05-18T08:28:06.634Z,11260
2017-05-18T08:29:07.242Z,10728
2017-05-18T08:30:07.874Z,9328
2017-05-18T08:31:08.494Z,7960
2017-05-18T08:32:09.111Z,7000
2017-05-18T08:33:09.721Z,6892
2017-05-18T08:34:10.331Z,7568
2017-05-18T08:35:10.951Z,8236
2017-05-18T08:36:11.571Z,8564
2017-05-18T08:37:12.190Z,8404
2017-05-18T08:38:12.815Z,7524
2017-05-18T08:39:13.417Z,6592
2017-05-18T08:40:14.037Z,6584
2017-05-18T08:41:14.657Z,7784
2017-05-18T08:42:15.328Z,9124
2017-05-18T08:43:15.951Z,9736
2017-05-18T08:44:16.573Z,9676
2017-05-18T08:45:17.188Z,9772
2017-05-18T08:46:17.806Z,9448
2017-05-18T08:47:18.415Z,9088
2017-05-18T08:48:19.039Z,8484
2017-05-18T08:49:19.649Z,7400
2017-05-18T08:50:20.251Z,7152
2017-05-18T08:51:20.873Z,7008
2017-05-18T08:52:21.496Z,7108
2017-05-18T08:53:22.120Z,7016
2017-05-18T08:54:22.724Z,7240
2017-05-18T08:55:23.346Z,8188
2017-05-18T08:56:24.175Z,9876
2017-05-18T08:57:24.793Z,11184
2017-05-18T08:58:25.418Z,10696
2017-05-18T08:59:26.040Z,8552
2017-05-18T09:00:26.665Z,6900
2017-05-18T09:01:27.286Z,5780
2017-05-18T09:02:27.913Z,5396
2017-05-18T09:03:28.537Z,7076
2017-05-18T09:04:29.159Z,10552
2017-05-18T09:05:29.782Z,13964
2017-05-18T09:06:30.404Z,15440
2017-05-18T09:07:31.018Z,11908
2017-05-18T09:08:31.633Z,6504
2017-05-18T09:09:32.250Z,4184
2017-05-18T09:10:32.877Z,3408
2017-05-18T09:11:33.482Z,2836
2017-05-18T09:12:34.094Z,3160
2017-05-18T09:13:34.714Z,4424
2017-05-18T09:14:35.320Z,6756
2017-05-18T09:15:35.937Z,9112
2017-05-18T09:16:36.552Z,10712
2017-05-18T09:17:37.156Z,11340
2017-05-18T09:18:37.771Z,10472
2017-05-18T09:19:38.392Z,10216
2017-05-18T09:20:39.008Z,10640
2017-05-18T09:21:39.626Z,12384
2017-05-18T09:22:40.242Z,13780
2017-05-18T09:23:40.854Z,14132
2017-05-18T09:24:41.479Z,13976
2017-05-18T09:25:42.097Z,11992
2017-05-18T09:26:42.714Z,8484
2017-05-18T09:27:43.335Z,6736
2017-05-18T09:28:43.962Z,6348
2017-05-18T09:29:44.588Z,6716
2017-05-18T09:30:45.204Z,7588
2017-05-18T09:31:45.821Z,8432
2017-05-18T09:32:46.439Z,9304
2017-05-18T09:33:47.074Z,10512
2017-05-18T09:34:47.698Z,11192
2017-05-18T09:35:48.322Z,11688
2017-05-18T09:36:48.944Z,12488
2017-05-18T09:37:49.567Z,13240
2017-05-18T09:38:50.169Z,14520
2017-05-18T09:39:50.791Z,16144
2017-05-18T09:40:51.420Z,17300
2017-05-18T09:41:52.046Z,17608
2017-05-18T09:42:52.648Z,18436
2017-05-18T09:43:53.253Z,20000
2017-05-18T09:44:53.865Z,20736
2017-05-18T09:45:54.492Z,20288
2017-05-18T09:46:55.160Z,20384
2017-05-18T09:47:55.767Z,21888
2017-05-18T09:48:56.374Z,23328
2017-05-18T09:49:56.994Z,23776
2017-05-18T09:50:57.617Z,22784
2017-05-18T09:51:58.232Z,20704
2017-05-18T09:52:58.858Z,18368
2017-05-18T09:53:59.480Z,17016
2017-05-18T09:55:00.089Z,16052
2017-05-18T09:56:00.703Z,15292
2017-05-18T09:57:01.378Z,15064
2017-05-18T09:58:02.007Z,15148
2017-05-18T09:59:02.611Z,15760
2017-05-18T10:00:03.246Z,16620
2017-05-18T10:01:03.877Z,17556
2017-05-18T10:02:04.504Z,18572
2017-05-18T10:03:05.134Z,19068
2017-05-18T10:04:05.765Z,20896
2017-05-18T10:05:06.373Z,23040
2017-05-18T10:06:06.995Z,24384
2017-05-18T10:07:07.625Z,25376
2017-05-18T10:08:08.231Z,24352
2017-05-18T10:09:08.851Z,23744
2017-05-18T10:10:09.460Z,24032
2017-05-18T10:11:10.067Z,24256
2017-05-18T10:12:10.690Z,23968
2017-05-18T10:13:11.300Z,23360
2017-05-18T10:14:11.911Z,22720
2017-05-18T10:15:12.520Z,22368
2017-05-18T10:16:13.125Z,23008
2017-05-18T10:17:13.791Z,22944
2017-05-18T10:18:14.420Z,22912
2017-05-18T10:19:15.028Z,22112
2017-05-18T10:20:15.658Z,20992
2017-05-18T10:21:16.265Z,20000
2017-05-18T10:22:16.890Z,19256
2017-05-18T10:23:17.525Z,18904
2017-05-18T10:24:18.152Z,18476
2017-05-18T10:25:18.780Z,18780
2017-05-18T10:26:19.410Z,18788
2017-05-18T10:27:20.029Z,19080
2017-05-18T10:28:20.653Z,19776
2017-05-18T10:29:21.282Z,20640
2017-05-18T10:30:21.906Z,21088
2017-05-18T10:31:22.524Z,21440
2017-05-18T10:32:23.145Z,21664
2017-05-18T10:33:23.766Z,21920
2017-05-18T10:34:24.380Z,21856
2017-05-18T10:35:25.004Z,21472
2017-05-18T10:36:25.633Z,20960
2017-05-18T10:37:26.256Z,20480
2017-05-18T10:38:26.875Z,20224
2017-05-18T10:39:27.709Z,20416
2017-05-18T10:40:28.339Z,21152
2017-05-18T10:41:29.002Z,21536
2017-05-18T10:42:29.626Z,21792
2017-05-18T10:43:30.248Z,22272
2017-05-18T10:44:30.881Z,22624
2017-05-18T10:45:31.505Z,22624
2017-05-18T10:46:32.117Z,22528
2017-05-18T10:47:32.723Z,22176
2017-05-18T10:48:33.356Z,21696
2017-05-18T10:49:33.983Z,21760
2017-05-18T10:50:34.596Z,22304
2017-05-18T10:51:35.205Z,24000
2017-05-18T10:52:35.810Z,26048
2017-05-18T10:53:36.419Z,27968
2017-05-18T10:54:37.030Z,29664
2017-05-18T10:55:37.639Z,31232
2017-05-18T10:56:38.315Z,31808
2017-05-18T10:57:38.945Z,32640
2017-05-18T10:58:39.629Z,33856
2017-05-18T10:59:40.188Z,34432
2017-05-18T11:00:40.819Z,34560
2017-05-18T11:01:41.455Z,34496
2017-05-18T11:02:42.086Z,34208
2017-05-18T11:03:42.698Z,34144
2017-05-18T11:04:43.326Z,33056
2017-05-18T11:05:44.173Z,31104
2017-05-18T11:06:44.800Z,27968
2017-05-18T11:07:45.410Z,24192
2017-05-18T11:08:46.021Z,21056
2017-05-18T11:09:46.649Z,18376
2017-05-18T11:10:47.279Z,16692
2017-05-18T11:11:47.892Z,15688
2017-05-18T11:12:48.516Z,14980
2017-05-18T11:13:49.131Z,14116
2017-05-18T11:14:49.755Z,13232
2017-05-18T11:15:50.382Z,12908
2017-05-18T11:16:51.240Z,12980
2017-05-18T11:17:51.854Z,12876
2017-05-18T11:18:52.471Z,12624
2017-05-18T11:19:53.091Z,12644
2017-05-18T11:20:53.722Z,13164
2017-05-18T11:21:54.351Z,13892
2017-05-18T11:22:54.989Z,14580
2017-05-18T11:23:55.631Z,15480
2017-05-18T11:24:56.266Z,16336
2017-05-18T11:25:56.905Z,16996
2017-05-18T11:26:57.543Z,17552
2017-05-18T11:27:58.153Z,18144
2017-05-18T11:28:58.766Z,18484
2017-05-18T11:29:59.389Z,18520
2017-05-18T11:31:00.012Z,18248
2017-05-18T11:32:00.639Z,17672
2017-05-18T11:33:01.244Z,17008
2017-05-18T11:34:01.871Z,16636
2017-05-18T11:35:02.481Z,16784
2017-05-18T11:36:03.110Z,17256
2017-05-18T11:37:03.739Z,17616
2017-05-18T11:38:04.353Z,17788
2017-05-18T11:39:04.978Z,17668
2017-05-18T11:40:05.587Z,17576
2017-05-18T11:41:06.203Z,17556
2017-05-18T11:42:12.432Z,17588
2017-05-18T11:43:58.861Z,17796
2017-05-18T11:45:00.638Z,17876
2017-05-18T11:46:01.859Z,17936
2017-05-18T11:47:02.468Z,17908
2017-05-18T11:48:03.086Z,17684
2017-05-18T11:49:03.699Z,17588
2017-05-18T11:50:04.318Z,17540
2017-05-18T11:51:04.924Z,17852
2017-05-18T11:52:05.533Z,17720
2017-05-18T11:53:06.160Z,17684
2017-05-18T11:54:06.770Z,18072
2017-05-18T11:55:07.385Z,18472
2017-05-18T11:56:08.015Z,18504
2017-05-18T11:57:08.642Z,18336
2017-05-18T11:58:09.324Z,18024
2017-05-18T11:59:09.938Z,17972
2017-05-18T12:00:10.562Z,18212
2017-05-18T12:01:11.181Z,18820
2017-05-18T12:02:11.793Z,20288
2017-05-18T12:03:12.426Z,21824
2017-05-18T12:04:13.112Z,22624
2017-05-18T12:05:13.761Z,22496
2017-05-18T12:06:14.401Z,22784
2017-05-18T12:07:15.027Z,23968
2017-05-18T12:08:15.700Z,25312
2017-05-18T12:09:16.311Z,25760
2017-05-18T12:10:16.947Z,25088
2017-05-18T12:11:17.555Z,23712
2017-05-18T12:12:18.185Z,22464
2017-05-18T12:13:18.834Z,21824
2017-05-18T12:14:19.475Z,21728
2017-05-18T12:15:20.090Z,22048
2017-05-18T12:16:20.715Z,22208
2017-05-18T12:17:21.330Z,22592
2017-05-18T12:18:21.954Z,22368
2017-05-18T12:19:22.583Z,22432
2017-05-18T12:20:23.214Z,22592
2017-05-18T12:21:23.845Z,22912
2017-05-18T12:22:24.478Z,24160
2017-05-18T12:23:25.132Z,25952
2017-05-18T12:24:25.796Z,27616
2017-05-18T12:25:26.442Z,29024
2017-05-18T12:26:27.052Z,29824
2017-05-18T12:27:27.668Z,30272
2017-05-18T12:28:28.322Z,30784
2017-05-18T12:29:28.933Z,31488
2017-05-18T12:30:29.567Z,31808
2017-05-18T12:31:30.214Z,31776
2017-05-18T12:32:30.867Z,30720
2017-05-18T12:33:31.500Z,29568
2017-05-18T12:34:32.138Z,29024
2017-05-18T12:35:32.755Z,29344
2017-05-18T12:36:33.392Z,30336
2017-05-18T12:37:34.055Z,31456
2017-05-18T12:38:34.693Z,32192
2017-05-18T12:39:35.347Z,32544
2017-05-18T12:40:35.973Z,32608
2017-05-18T12:41:36.594Z,32448
2017-05-18T12:42:37.220Z,32576
2017-05-18T12:43:37.843Z,33152
2017-05-18T12:44:38.469Z,33952
2017-05-18T12:45:39.092Z,34816
2017-05-18T12:46:39.707Z,35264
2017-05-18T12:47:40.342Z,35776
2017-05-18T12:48:41.015Z,35680
2017-05-18T12:49:41.653Z,35584
2017-05-18T12:50:42.307Z,35328
2017-05-18T12:51:42.934Z,35168
2017-05-18T12:52:43.585Z,34528
2017-05-18T12:53:44.194Z,34400
2017-05-18T12:54:44.824Z,34720
2017-05-18T12:55:45.468Z,35200
2017-05-18T12:56:46.108Z,37472
2017-05-18T12:57:46.777Z,39200
2017-05-18T12:58:48.385Z,38656
2017-05-18T12:59:49.027Z,38400
2017-05-18T13:00:49.671Z,39904
2017-05-18T13:01:50.280Z,44416
2017-05-18T13:02:50.891Z,50016
2017-05-18T13:03:51.512Z,57408
2017-05-18T13:04:52.130Z,57696
2017-05-18T13:05:52.771Z,60256
2017-05-18T13:06:53.400Z,68480
2017-05-18T13:07:54.009Z,70304
2017-05-18T13:08:54.839Z,56672
2017-05-18T13:09:55.475Z,46464
2017-05-18T13:10:56.107Z,38912
2017-05-18T13:11:56.728Z,37408
2017-05-18T13:12:57.343Z,37088
2017-05-18T13:13:57.958Z,37504
2017-05-18T13:14:58.574Z,37056
2017-05-18T13:15:59.204Z,35808
2017-05-18T13:16:59.823Z,35168
2017-05-18T13:18:00.444Z,34912
2017-05-18T13:19:01.161Z,35040
2017-05-18T13:20:01.715Z,34880
2017-05-18T13:21:02.335Z,33824
2017-05-18T13:22:02.962Z,32128
2017-05-18T13:23:03.578Z,30016
2017-05-18T13:24:04.204Z,27936
2017-05-18T13:25:04.826Z,26368
2017-05-18T13:26:05.455Z,25376
2017-05-18T13:27:06.091Z,24832
2017-05-18T13:28:06.726Z,24480
2017-05-18T13:29:07.353Z,24160
2017-05-18T13:30:07.983Z,23776
2017-05-18T13:31:08.613Z,23200
2017-05-18T13:32:09.245Z,22400
2017-05-18T13:33:09.860Z,21984
2017-05-18T13:34:10.487Z,23040
2017-05-18T13:35:11.102Z,24576
2017-05-18T13:36:11.729Z,25888
2017-05-18T13:37:12.349Z,27776
2017-05-18T13:38:12.972Z,29216
2017-05-18T13:39:13.631Z,29952
2017-05-18T13:40:14.240Z,29728
2017-05-18T13:41:14.865Z,29696